This is the latest recevied weather packets stored in our database for station/object HB9TJR-3. If no packets are shown the sender has not sent any weather packets the latest 1 day(s).
| Time | Temp. | Humidity | Pressure | Rain* | Wind** | Luminosity | Snow |
|---|---|---|---|---|---|---|---|
| 1836274633 | 16.67° C | 81% | 874.4 hPa | 0 mm | 0 m/s | - | - |
| 1778018854 | 8.33° C | 86% | 860.6 hPa | 0 mm | 0 m/s | - | - |
| 1778017893 | 8.33° C | 86% | 860.6 hPa | 0 mm | 0 m/s | - | - |
| 1778015974 | 8.33° C | 86% | 860.4 hPa | 0 mm | 0 m/s | - | - |
| 1778015014 | 8.33° C | 86% | 860.6 hPa | 0 mm | 0 m/s | - | - |
| 1778014054 | 8.33° C | 86% | 860.7 hPa | 0 mm | 0 m/s | - | - |
| 1778013094 | 8.33° C | 86% | 860.7 hPa | 0 mm | 0 m/s | - | - |
| 1778012134 | 8.33° C | 86% | 860.4 hPa | 0 mm | 0 m/s | - | - |
| 1778011174 | 8.33° C | 86% | 860.3 hPa | 0 mm | 0 m/s | - | - |
| 1778010214 | 8.33° C | 84% | 860.2 hPa | 0 mm | 0 m/s | - | - |
| 1778009254 | 8.33° C | 85% | 860.2 hPa | 0 mm | 0 m/s | - | - |
| 1778008293 | 8.33° C | 85% | 860 hPa | 0 mm | 0 m/s | - | - |
| 1778007334 | 8.33° C | 86% | 859.7 hPa | 0 mm | 0 m/s | - | - |
| 1778006374 | 8.33° C | 89% | 859.8 hPa | 0 mm | 0 m/s | - | - |
| 1778005414 | 8.89° C | 88% | 859.9 hPa | 0 mm | 0 m/s | - | - |
| 1778004454 | 8.33° C | 90% | 859.9 hPa | 0 mm | 0 m/s | - | - |
| 1778003494 | 8.33° C | 89% | 859.8 hPa | 0 mm | 0 m/s | - | - |
| 1778002534 | 8.33° C | 88% | 860 hPa | 0 mm | 0 m/s | - | - |
| 1778001574 | 8.33° C | 88% | 859.8 hPa | 0 mm | 0 m/s | - | - |
| 1778000613 | 8.33° C | 88% | 859.8 hPa | 0 mm | 0 m/s | - | - |
| 1777999654 | 7.78° C | 90% | 859.9 hPa | 0 mm | 0 m/s | - | - |
| 1777998694 | 7.22° C | 91% | 860 hPa | 0 mm | 0 m/s | - | - |
| 1777997734 | 7.22° C | 92% | 860.2 hPa | 0 mm | 0 m/s | - | - |
| 1777996774 | 7.78° C | 90% | 860.1 hPa | 0 mm | 0 m/s | - | - |
| 1777995814 | 8.33° C | 89% | 860.2 hPa | 0 mm | 0 m/s | - | - |
* Rain latest hour (hover to see other rain measurements)
** Current wind speed in m/s (hover to see current wind gust speed)